createdAt,value
2019-04-01T00:00:40.774Z,3.18
2019-04-01T00:06:01.388Z,3.24
2019-04-01T00:11:21.939Z,3.07
2019-04-01T00:16:42.403Z,3.05
2019-04-01T00:22:02.867Z,3.08
2019-04-01T00:27:23.434Z,3.00
2019-04-01T00:32:44.152Z,2.90
2019-04-01T00:38:06.045Z,2.90
2019-04-01T00:43:46.552Z,2.87
2019-04-01T00:49:07.275Z,2.69
2019-04-01T00:54:27.719Z,2.56
2019-04-01T00:59:48.262Z,2.58
2019-04-01T01:05:09.008Z,2.45
2019-04-01T01:10:29.420Z,2.40
2019-04-01T01:15:50.019Z,2.43
2019-04-01T01:21:10.915Z,2.28
2019-04-01T01:26:31.475Z,2.18
2019-04-01T01:31:52.099Z,2.09
2019-04-01T01:37:12.535Z,2.12
2019-04-01T01:42:33.795Z,1.90
2019-04-01T01:47:55.362Z,1.87
2019-04-01T01:53:16.237Z,1.87
2019-04-01T01:58:36.786Z,1.84
2019-04-01T02:03:57.297Z,1.84
2019-04-01T02:09:17.911Z,1.83
2019-04-01T02:14:38.388Z,1.77
2019-04-01T02:19:58.999Z,1.78
2019-04-01T02:25:19.646Z,1.79
2019-04-01T02:30:40.199Z,1.74
2019-04-01T02:36:00.484Z,1.67
2019-04-01T02:41:21.177Z,1.70
2019-04-01T02:46:41.782Z,1.53
2019-04-01T02:52:02.051Z,1.42
2019-04-01T02:57:23.126Z,1.39
2019-04-01T03:02:43.743Z,1.32
2019-04-01T03:08:04.080Z,1.27
2019-04-01T03:13:24.602Z,1.16
2019-04-01T03:18:45.122Z,1.32
2019-04-01T03:24:05.928Z,1.14
2019-04-01T03:29:26.375Z,1.24
2019-04-01T03:34:47.052Z,1.15
2019-04-01T03:40:07.565Z,0.91
2019-04-01T03:45:30.800Z,0.91
2019-04-01T03:50:51.391Z,1.02
2019-04-01T03:56:12.127Z,1.10
2019-04-01T04:01:32.685Z,0.96
2019-04-01T04:06:53.141Z,0.80
2019-04-01T04:12:15.537Z,0.61
2019-04-01T04:17:36.000Z,0.50
2019-04-01T04:22:56.732Z,0.62
2019-04-01T04:28:17.466Z,0.53
2019-04-01T04:33:38.060Z,0.39
2019-04-01T04:38:58.739Z,0.51
2019-04-01T04:44:19.074Z,0.53
2019-04-01T04:49:39.010Z,0.60
2019-04-01T04:54:59.983Z,0.38
2019-04-01T05:00:20.757Z,0.35
2019-04-01T05:05:41.168Z,0.23
2019-04-01T05:11:01.756Z,0.30
2019-04-01T05:16:22.253Z,0.29
2019-04-01T05:21:43.532Z,0.38
2019-04-01T05:27:03.745Z,0.50
2019-04-01T05:32:27.125Z,0.56
2019-04-01T05:37:47.358Z,0.78
2019-04-01T05:43:07.871Z,1.01
2019-04-01T05:48:30.377Z,1.06
2019-04-01T05:53:50.991Z,1.25
2019-04-01T05:59:11.306Z,1.31
2019-04-01T06:04:31.865Z,1.47
2019-04-01T06:09:52.631Z,1.65
2019-04-01T06:15:13.506Z,1.83
2019-04-01T06:20:34.140Z,2.00
2019-04-01T06:25:54.990Z,2.07
2019-04-01T06:31:15.724Z,2.35
2019-04-01T06:36:38.684Z,2.42
2019-04-01T06:41:59.175Z,2.70
2019-04-01T06:47:19.678Z,2.87
2019-04-01T06:52:40.595Z,3.06
2019-04-01T06:58:01.591Z,3.26
2019-04-01T07:03:23.625Z,3.45
2019-04-01T07:08:44.038Z,3.49
2019-04-01T07:14:04.893Z,3.67
2019-04-01T07:19:25.403Z,3.81
2019-04-01T07:24:46.992Z,3.90
2019-04-01T07:30:07.800Z,4.16
2019-04-01T07:35:29.424Z,4.34
2019-04-01T07:40:50.430Z,4.66
2019-04-01T07:46:12.381Z,4.85
2019-04-01T07:51:33.097Z,4.96
2019-04-01T07:56:54.376Z,5.20
2019-04-01T08:02:14.932Z,5.43
2019-04-01T08:07:35.791Z,5.32
2019-04-01T08:12:56.278Z,5.71
2019-04-01T08:18:16.912Z,5.93
2019-04-01T08:23:37.370Z,6.06
2019-04-01T08:28:57.884Z,6.47
2019-04-01T08:34:17.952Z,6.57
2019-04-01T08:39:38.630Z,6.80
2019-04-01T08:44:40.878Z,6.89
2019-04-01T08:49:42.985Z,7.13
2019-04-01T08:54:45.342Z,7.17
2019-04-01T08:59:47.405Z,7.47
2019-04-01T09:05:08.159Z,7.42
2019-04-01T09:10:10.683Z,7.64
2019-04-01T09:15:13.352Z,7.74
2019-04-01T09:20:15.505Z,8.19
2019-04-01T09:25:17.469Z,8.19
2019-04-01T09:30:20.806Z,8.43
2019-04-01T09:35:22.883Z,8.59
2019-04-01T09:40:24.699Z,8.73
2019-04-01T09:45:26.543Z,8.83
2019-04-01T09:50:28.484Z,8.90
2019-04-01T09:55:30.476Z,8.83
2019-04-01T10:00:33.341Z,9.29
2019-04-01T10:05:35.272Z,9.26
2019-04-01T10:10:37.188Z,9.66
2019-04-01T10:15:40.219Z,9.69
2019-04-01T10:20:42.592Z,9.84
2019-04-01T10:25:44.569Z,9.88
2019-04-01T10:30:46.707Z,10.02
2019-04-01T10:35:48.543Z,10.39
2019-04-01T10:40:50.363Z,10.32
2019-04-01T10:45:52.210Z,10.50
2019-04-01T10:50:54.271Z,10.49
2019-04-01T10:55:56.267Z,10.71
2019-04-01T11:00:58.152Z,11.04
2019-04-01T11:06:00.186Z,11.20
2019-04-01T11:11:02.203Z,11.56
2019-04-01T11:16:04.125Z,11.64
2019-04-01T11:21:06.070Z,11.77
2019-04-01T11:26:07.998Z,11.85
2019-04-01T11:31:10.173Z,12.23
2019-04-01T11:36:13.998Z,12.47
2019-04-01T11:41:16.764Z,12.20
2019-04-01T11:46:18.797Z,12.76
2019-04-01T11:51:32.683Z,12.90
2019-04-01T11:56:26.723Z,13.05
2019-04-01T12:01:28.658Z,13.19
2019-04-01T12:06:30.610Z,13.23
2019-04-01T12:11:32.568Z,13.81
2019-04-01T12:16:34.394Z,13.86
2019-04-01T12:21:37.671Z,13.89
2019-04-01T12:26:40.183Z,13.73
2019-04-01T12:31:42.035Z,14.14
2019-04-01T12:36:43.860Z,14.63
2019-04-01T12:41:45.802Z,14.64
2019-04-01T12:46:49.297Z,14.85
2019-04-01T12:51:51.166Z,15.25
2019-04-01T12:56:53.096Z,15.12
2019-04-01T13:01:55.928Z,15.40
2019-04-01T13:06:57.767Z,15.73
2019-04-01T13:11:59.640Z,15.62
2019-04-01T13:17:01.465Z,15.44
2019-04-01T13:22:03.311Z,15.38
2019-04-01T13:27:08.950Z,15.44
2019-04-01T13:32:08.993Z,15.99
2019-04-01T13:37:10.836Z,16.04
2019-04-01T13:42:14.670Z,15.64
2019-04-01T13:47:17.249Z,15.73
2019-04-01T13:52:19.156Z,16.19
2019-04-01T13:57:20.928Z,16.24
2019-04-01T14:02:22.781Z,17.11
2019-04-01T14:07:24.617Z,18.30
2019-04-01T14:12:26.470Z,19.67
2019-04-01T14:17:28.437Z,20.01
2019-04-01T14:22:30.728Z,19.36
2019-04-01T14:27:32.564Z,19.40
2019-04-01T14:32:34.509Z,20.27
2019-04-01T14:37:36.447Z,21.59
2019-04-01T14:42:39.660Z,21.47
2019-04-01T14:47:56.578Z,20.60
2019-04-01T14:52:45.727Z,21.69
2019-04-01T14:57:47.553Z,22.81
2019-04-01T15:02:49.415Z,22.28
2019-04-01T15:07:51.232Z,22.33
2019-04-01T15:13:04.296Z,23.59
2019-04-01T15:17:59.882Z,23.22
2019-04-01T15:23:02.011Z,23.25
2019-04-01T15:28:03.944Z,23.25
2019-04-01T15:33:05.890Z,23.33
2019-04-01T15:38:08.077Z,23.27
2019-04-01T15:43:09.927Z,23.34
2019-04-01T15:48:11.869Z,23.19
2019-04-01T15:53:13.830Z,22.20
2019-04-01T15:58:15.662Z,22.93
2019-04-01T16:03:17.817Z,22.43
2019-04-01T16:08:19.653Z,22.19
2019-04-01T16:13:21.524Z,22.35
2019-04-01T16:18:23.364Z,22.26
2019-04-01T16:23:25.203Z,21.19
2019-04-01T16:28:27.027Z,21.72
2019-04-01T16:33:28.866Z,21.10
2019-04-01T16:38:31.004Z,20.67
2019-04-01T16:43:32.867Z,20.24
2019-04-01T16:48:34.815Z,19.73
2019-04-01T16:53:36.867Z,19.55
2019-04-01T16:58:38.788Z,18.98
2019-04-01T17:03:40.651Z,17.95
2019-04-01T17:08:42.502Z,17.60
2019-04-01T17:13:44.434Z,16.90
2019-04-01T17:18:46.377Z,15.81
2019-04-01T17:23:48.494Z,15.70
2019-04-01T17:28:50.415Z,13.68
2019-04-01T17:33:52.372Z,12.98
2019-04-01T17:38:54.219Z,12.71
2019-04-01T17:43:56.087Z,11.84
2019-04-01T17:48:57.916Z,11.43
2019-04-01T17:54:01.082Z,10.74
2019-04-01T17:59:03.332Z,10.64
2019-04-01T18:04:05.181Z,10.17
2019-04-01T18:09:07.509Z,9.88
2019-04-01T18:14:09.351Z,9.70
2019-04-01T18:19:11.275Z,9.49
2019-04-01T18:24:13.663Z,9.38
2019-04-01T18:29:15.477Z,9.23
2019-04-01T18:34:17.428Z,9.24
2019-04-01T18:39:19.308Z,8.99
2019-04-01T18:44:21.291Z,8.87
2019-04-01T18:49:23.235Z,8.76
2019-04-01T18:54:26.360Z,8.63
2019-04-01T18:59:28.234Z,8.37
2019-04-01T19:04:30.359Z,8.28
2019-04-01T19:09:33.394Z,8.30
2019-04-01T19:14:35.389Z,8.36
2019-04-01T19:19:39.936Z,7.99
2019-04-01T19:24:41.026Z,7.80
2019-04-01T19:29:43.209Z,7.64
2019-04-01T19:34:45.200Z,7.49
2019-04-01T19:39:47.051Z,7.45
2019-04-01T19:44:48.881Z,7.23
2019-04-01T19:49:50.832Z,7.24
2019-04-01T19:54:52.700Z,7.25
2019-04-01T19:59:54.861Z,7.22
2019-04-01T20:04:56.809Z,7.23
2019-04-01T20:09:58.671Z,7.04
2019-04-01T20:15:01.035Z,7.08
2019-04-01T20:20:04.408Z,6.89
2019-04-01T20:25:06.842Z,6.97
2019-04-01T20:30:09.700Z,6.86
2019-04-01T20:35:22.786Z,6.82
2019-04-01T20:40:16.701Z,6.64
2019-04-01T20:45:18.651Z,6.45
2019-04-01T20:50:21.174Z,6.35
2019-04-01T20:55:23.048Z,6.34
2019-04-01T21:00:24.879Z,6.30
2019-04-01T21:05:26.726Z,6.19
2019-04-01T21:10:28.561Z,6.24
2019-04-01T21:15:31.522Z,6.20
2019-04-01T21:20:33.344Z,6.23
2019-04-01T21:25:35.349Z,6.00
2019-04-01T21:30:37.275Z,6.04
2019-04-01T21:35:39.152Z,5.76
2019-04-01T21:40:41.084Z,5.87
2019-04-01T21:45:43.051Z,5.75
2019-04-01T21:50:45.108Z,5.63
2019-04-01T21:55:46.961Z,5.41
2019-04-01T22:00:54.894Z,5.45
2019-04-01T22:05:56.754Z,5.47
2019-04-01T22:10:58.609Z,5.59
2019-04-01T22:16:00.548Z,5.56
2019-04-01T22:21:02.499Z,5.41
2019-04-01T22:26:04.311Z,5.43
2019-04-01T22:31:06.159Z,5.34
2019-04-01T22:36:08.002Z,5.18
2019-04-01T22:41:10.035Z,5.04
2019-04-01T22:46:12.006Z,5.01
2019-04-01T22:51:13.901Z,4.92
2019-04-01T22:56:15.707Z,4.80
2019-04-01T23:01:17.573Z,4.78
2019-04-01T23:06:19.632Z,4.58
2019-04-01T23:11:21.545Z,4.40
2019-04-01T23:16:23.427Z,4.50
2019-04-01T23:21:25.340Z,4.33
2019-04-01T23:26:27.168Z,4.41
2019-04-01T23:31:29.272Z,4.26
2019-04-01T23:36:31.218Z,4.28
2019-04-01T23:41:33.041Z,4.27
2019-04-01T23:46:35.004Z,4.32
2019-04-01T23:51:37.989Z,4.22
2019-04-01T23:56:40.871Z,4.23
